createdAt,value
2024-01-11T00:01:01.522Z,-4.88
2024-01-11T00:03:40.932Z,-4.91
2024-01-11T00:06:20.505Z,-4.96
2024-01-11T00:08:59.943Z,-5.01
2024-01-11T00:11:39.375Z,-4.99
2024-01-11T00:14:23.885Z,-5.00
2024-01-11T00:17:03.269Z,-5.04
2024-01-11T00:19:42.619Z,-5.06
2024-01-11T00:22:21.962Z,-5.05
2024-01-11T00:25:01.395Z,-5.08
2024-01-11T00:27:40.872Z,-5.10
2024-01-11T00:30:25.797Z,-5.12
2024-01-11T00:33:05.311Z,-5.11
2024-01-11T00:35:44.882Z,-5.12
2024-01-11T00:38:24.457Z,-5.14
2024-01-11T00:41:03.951Z,-5.15
2024-01-11T00:43:43.738Z,-5.17
2024-01-11T00:46:28.171Z,-5.17
2024-01-11T00:49:07.682Z,-5.20
2024-01-11T00:51:47.146Z,-5.19
2024-01-11T00:54:27.123Z,-5.19
2024-01-11T00:57:06.925Z,-5.21
2024-01-11T00:59:46.512Z,-5.25
2024-01-11T01:02:31.096Z,-5.30
2024-01-11T01:05:11.669Z,-5.30
2024-01-11T01:07:51.327Z,-5.31
2024-01-11T01:10:30.681Z,-5.33
2024-01-11T01:13:10.281Z,-5.37
2024-01-11T01:15:49.707Z,-5.41
2024-01-11T01:18:34.300Z,-5.40
2024-01-11T01:21:14.043Z,-5.40
2024-01-11T01:23:53.396Z,-5.39
2024-01-11T01:26:32.762Z,-5.36
2024-01-11T01:29:12.304Z,-5.36
2024-01-11T01:31:51.714Z,-5.38
2024-01-11T01:34:36.223Z,-5.37
2024-01-11T01:37:15.612Z,-5.40
2024-01-11T01:39:54.976Z,-5.41
2024-01-11T01:42:34.439Z,-5.40
2024-01-11T01:45:15.494Z,-5.39
2024-01-11T01:47:54.997Z,-5.42
2024-01-11T01:50:40.567Z,-5.47
2024-01-11T01:53:20.146Z,-5.50
2024-01-11T01:56:01.630Z,-5.54
2024-01-11T01:58:42.299Z,-5.56
2024-01-11T02:01:22.444Z,-5.56
2024-01-11T02:04:03.600Z,-5.59
2024-01-11T02:06:50.111Z,-5.62
2024-01-11T02:09:30.599Z,-5.68
2024-01-11T02:12:13.278Z,-5.71
2024-01-11T02:14:52.983Z,-5.72
2024-01-11T02:17:32.608Z,-5.73
2024-01-11T02:20:13.092Z,-5.75
2024-01-11T02:23:05.195Z,-5.76
2024-01-11T02:25:49.668Z,-5.76
2024-01-11T02:28:29.058Z,-5.70
2024-01-11T02:31:08.487Z,-5.70
2024-01-11T02:33:48.373Z,-5.67
2024-01-11T02:36:29.307Z,-5.62
2024-01-11T02:39:08.673Z,-5.58
2024-01-11T02:41:53.617Z,-5.58
2024-01-11T02:44:33.318Z,-5.61
2024-01-11T02:47:12.803Z,-5.63
2024-01-11T02:49:52.187Z,-5.63
2024-01-11T02:52:32.044Z,-5.61
2024-01-11T02:55:12.003Z,-5.60
2024-01-11T02:57:56.554Z,-5.70
2024-01-11T03:00:35.917Z,-5.75
2024-01-11T03:03:15.404Z,-5.78
2024-01-11T03:05:55.313Z,-5.79
2024-01-11T03:08:35.108Z,-5.83
2024-01-11T03:11:14.714Z,-5.84
2024-01-11T03:13:59.181Z,-5.85
2024-01-11T03:16:38.652Z,-5.85
2024-01-11T03:19:18.084Z,-5.87
2024-01-11T03:21:57.570Z,-5.91
2024-01-11T03:24:37.002Z,-5.97
2024-01-11T03:27:16.384Z,-6.00
2024-01-11T03:30:00.997Z,-6.03
2024-01-11T03:32:41.499Z,-6.07
2024-01-11T03:35:21.732Z,-6.09
2024-01-11T03:38:01.210Z,-6.09
2024-01-11T03:40:40.735Z,-6.10
2024-01-11T03:43:20.189Z,-6.11
2024-01-11T03:46:04.798Z,-6.13
2024-01-11T03:48:44.236Z,-6.11
2024-01-11T03:51:23.686Z,-6.15
2024-01-11T03:54:03.082Z,-6.18
2024-01-11T03:56:46.943Z,-6.19
2024-01-11T03:59:29.207Z,-6.16
2024-01-11T04:02:13.714Z,-6.14
2024-01-11T04:04:53.168Z,-6.14
2024-01-11T04:07:32.849Z,-6.12
2024-01-11T04:10:13.287Z,-6.14
2024-01-11T04:12:52.851Z,-6.14
2024-01-11T04:15:32.235Z,-6.15
2024-01-11T04:18:17.093Z,-6.15
2024-01-11T04:20:56.490Z,-6.16
2024-01-11T04:23:35.979Z,-6.15
2024-01-11T04:26:15.448Z,-6.15
2024-01-11T04:28:57.027Z,-6.20
2024-01-11T04:31:38.035Z,-6.24
2024-01-11T04:34:22.601Z,-6.27
2024-01-11T04:37:01.992Z,-6.27
2024-01-11T04:39:41.350Z,-6.28
2024-01-11T04:42:20.777Z,-6.31
2024-01-11T04:45:00.170Z,-6.36
2024-01-11T04:47:40.340Z,-6.36
2024-01-11T04:50:25.041Z,-6.39
2024-01-11T04:53:04.480Z,-6.42
2024-01-11T04:55:44.208Z,-6.43
2024-01-11T04:58:23.601Z,-6.43
2024-01-11T05:01:03.009Z,-6.42
2024-01-11T05:03:42.480Z,-6.41
2024-01-11T05:06:31.847Z,-6.44
2024-01-11T05:09:11.635Z,-6.45
2024-01-11T05:11:51.013Z,-6.45
2024-01-11T05:14:30.486Z,-6.46
2024-01-11T05:17:10.295Z,-6.48
2024-01-11T05:19:49.694Z,-6.50
2024-01-11T05:22:34.155Z,-6.53
2024-01-11T05:25:14.210Z,-6.60
2024-01-11T05:27:53.581Z,-6.62
2024-01-11T05:30:33.038Z,-6.58
2024-01-11T05:33:12.813Z,-6.57
2024-01-11T05:35:52.728Z,-6.58
2024-01-11T05:38:37.397Z,-6.60
2024-01-11T05:41:16.870Z,-6.55
2024-01-11T05:43:56.988Z,-6.54
2024-01-11T05:46:36.411Z,-6.53
2024-01-11T05:49:16.053Z,-6.51
2024-01-11T05:51:55.474Z,-6.51
2024-01-11T05:54:39.957Z,-6.56
2024-01-11T05:57:19.331Z,-6.70
2024-01-11T05:59:58.743Z,-6.83
2024-01-11T06:02:38.381Z,-6.85
2024-01-11T06:05:18.179Z,-6.83
2024-01-11T06:07:57.693Z,-6.80
2024-01-11T06:10:42.301Z,-6.77
2024-01-11T06:13:21.644Z,-6.79
2024-01-11T06:16:01.011Z,-6.79
2024-01-11T06:18:40.508Z,-6.78
2024-01-11T06:21:19.995Z,-6.69
2024-01-11T06:24:00.177Z,-6.55
2024-01-11T06:26:44.794Z,-6.50
2024-01-11T06:29:24.277Z,-6.52
2024-01-11T06:32:03.763Z,-6.55
2024-01-11T06:34:48.031Z,-6.57
2024-01-11T06:37:27.545Z,-6.61
2024-01-11T06:40:07.211Z,-6.71
2024-01-11T06:42:51.809Z,-6.93
2024-01-11T06:45:31.188Z,-7.00
2024-01-11T06:48:11.346Z,-7.00
2024-01-11T06:50:50.997Z,-7.03
2024-01-11T06:53:30.539Z,-7.02
2024-01-11T06:56:09.927Z,-7.00
2024-01-11T06:58:55.095Z,-6.94
2024-01-11T07:01:34.607Z,-6.89
2024-01-11T07:04:14.115Z,-6.84
2024-01-11T07:06:53.586Z,-6.85
2024-01-11T07:09:33.081Z,-6.85
2024-01-11T07:12:14.461Z,-6.87
2024-01-11T07:14:58.941Z,-6.85
2024-01-11T07:17:38.416Z,-6.86
2024-01-11T07:20:21.072Z,-6.84
2024-01-11T07:23:00.690Z,-6.82
2024-01-11T07:25:40.114Z,-6.83
2024-01-11T07:28:19.608Z,-6.84
2024-01-11T07:31:04.207Z,-6.90
2024-01-11T07:33:43.809Z,-6.95
2024-01-11T07:36:23.945Z,-6.94
2024-01-11T07:39:03.520Z,-6.90
2024-01-11T07:41:43.246Z,-6.90
2024-01-11T07:44:23.201Z,-6.93
2024-01-11T07:47:07.973Z,-6.92
2024-01-11T07:49:47.439Z,-6.92
2024-01-11T07:52:27.175Z,-6.98
2024-01-11T07:55:09.713Z,-7.01
2024-01-11T07:57:49.828Z,-7.01
2024-01-11T08:00:30.280Z,-7.01
2024-01-11T08:03:14.939Z,-6.96
2024-01-11T08:05:54.494Z,-6.94
2024-01-11T08:08:34.186Z,-6.91
2024-01-11T08:11:14.708Z,-6.88
2024-01-11T08:13:57.089Z,-6.87
2024-01-11T08:16:37.124Z,-6.84
2024-01-11T08:19:21.733Z,-6.79
2024-01-11T08:22:01.653Z,-6.72
2024-01-11T08:24:41.381Z,-6.62
2024-01-11T08:27:20.764Z,-6.45
2024-01-11T08:30:00.099Z,-6.34
2024-01-11T08:32:41.648Z,-6.35
2024-01-11T08:35:26.301Z,-6.37
2024-01-11T08:38:06.151Z,-6.38
2024-01-11T08:40:46.894Z,-6.36
2024-01-11T08:43:26.424Z,-6.31
2024-01-11T08:46:06.167Z,-6.31
2024-01-11T08:48:45.631Z,-6.26
2024-01-11T08:51:30.664Z,-6.27
2024-01-11T08:54:11.748Z,-6.32
2024-01-11T08:56:51.313Z,-6.43
2024-01-11T08:59:31.097Z,-6.42
2024-01-11T09:02:15.504Z,-6.40
2024-01-11T09:04:58.244Z,-6.38
2024-01-11T09:07:42.825Z,-6.39
2024-01-11T09:10:22.285Z,-6.29
2024-01-11T09:13:02.179Z,-6.24
2024-01-11T09:15:41.718Z,-6.20
2024-01-11T09:18:21.343Z,-6.12
2024-01-11T09:21:00.870Z,-6.05
2024-01-11T09:23:45.480Z,-5.96
2024-01-11T09:26:24.941Z,-5.97
2024-01-11T09:29:04.726Z,-5.94
2024-01-11T09:31:44.669Z,-5.92
2024-01-11T09:34:24.498Z,-5.84
2024-01-11T09:37:05.911Z,-5.65
2024-01-11T09:39:50.723Z,-5.51
2024-01-11T09:42:30.375Z,-5.38
2024-01-11T09:45:10.901Z,-5.20
2024-01-11T09:47:52.728Z,-5.10
2024-01-11T09:50:33.570Z,-4.79
2024-01-11T09:53:15.659Z,-2.97
2024-01-11T09:56:02.302Z,-0.67
2024-01-11T09:58:44.083Z,-0.28
2024-01-11T10:01:24.488Z,-0.22
2024-01-11T10:04:04.332Z,-0.05
2024-01-11T10:06:47.462Z,0.31
2024-01-11T10:09:27.001Z,0.31
2024-01-11T10:12:12.196Z,0.35
2024-01-11T10:14:51.683Z,0.52
2024-01-11T10:17:31.282Z,0.91
2024-01-11T10:20:13.143Z,0.99
2024-01-11T10:22:55.394Z,1.00
2024-01-11T10:25:35.051Z,1.09
2024-01-11T10:28:21.852Z,1.43
2024-01-11T10:31:01.973Z,2.32
2024-01-11T10:33:43.256Z,3.54
2024-01-11T10:36:22.777Z,3.73
2024-01-11T10:39:07.075Z,3.67
2024-01-11T10:41:49.129Z,3.69
2024-01-11T10:47:30.338Z,3.08
2024-01-11T10:50:12.872Z,3.45
2024-01-11T10:53:08.965Z,3.81
2024-01-11T10:55:50.832Z,4.35
2024-01-11T10:58:32.679Z,4.48
2024-01-11T11:01:15.791Z,4.54
2024-01-11T11:04:03.703Z,4.83
2024-01-11T11:06:45.237Z,5.27
2024-01-11T11:09:26.356Z,5.42
2024-01-11T11:12:07.144Z,5.84
2024-01-11T11:14:47.323Z,6.11
2024-01-11T11:17:27.418Z,6.30
2024-01-11T11:20:14.699Z,6.38
2024-01-11T11:23:12.242Z,6.35
2024-01-11T11:25:54.382Z,6.46
2024-01-11T11:28:36.947Z,6.63
2024-01-11T11:31:16.267Z,6.86
2024-01-11T11:33:59.730Z,7.22
2024-01-11T11:36:44.374Z,7.65
2024-01-11T11:39:24.268Z,7.93
2024-01-11T11:42:03.884Z,8.24
2024-01-11T11:44:44.088Z,8.49
2024-01-11T11:47:30.782Z,8.53
2024-01-11T11:50:16.251Z,8.76
2024-01-11T11:53:03.508Z,8.84
2024-01-11T11:55:43.773Z,8.81
2024-01-11T11:58:23.065Z,8.78
2024-01-11T12:01:04.184Z,8.77
2024-01-11T12:03:45.102Z,9.21
2024-01-11T12:06:26.991Z,9.88
2024-01-11T12:09:11.510Z,9.97
2024-01-11T12:11:58.466Z,9.92
2024-01-11T12:14:46.454Z,9.93
2024-01-11T12:17:26.137Z,9.97
2024-01-11T12:20:05.923Z,9.96
2024-01-11T12:22:45.213Z,9.97
2024-01-11T12:25:29.856Z,9.89
2024-01-11T12:28:09.377Z,9.97
2024-01-11T12:30:49.015Z,10.07
2024-01-11T12:33:29.691Z,10.32
2024-01-11T12:36:10.148Z,10.48
2024-01-11T12:38:55.667Z,10.56
2024-01-11T12:41:41.110Z,10.55
2024-01-11T12:44:20.511Z,10.60
2024-01-11T12:47:00.566Z,10.89
2024-01-11T12:49:39.979Z,10.95
2024-01-11T12:52:26.443Z,11.66
2024-01-11T12:55:06.817Z,12.28
2024-01-11T12:57:51.281Z,12.15
2024-01-11T13:00:31.429Z,11.85
2024-01-11T13:03:11.133Z,11.75
2024-01-11T13:05:50.838Z,11.81
2024-01-11T13:08:31.334Z,11.78
2024-01-11T13:11:11.663Z,11.80
2024-01-11T13:13:56.034Z,12.05
2024-01-11T13:16:35.354Z,12.22
2024-01-11T13:19:23.792Z,12.35
2024-01-11T13:22:06.490Z,12.41
2024-01-11T13:24:46.037Z,12.49
2024-01-11T13:27:25.329Z,12.52
2024-01-11T13:30:10.797Z,12.55
2024-01-11T13:32:50.349Z,12.49
2024-01-11T13:35:30.147Z,12.52
2024-01-11T13:38:09.995Z,12.37
2024-01-11T13:40:49.571Z,12.22
2024-01-11T13:43:28.872Z,12.21
2024-01-11T13:46:14.288Z,12.08
2024-01-11T13:48:53.991Z,11.94
2024-01-11T13:51:42.838Z,11.89
2024-01-11T13:54:25.923Z,11.85
2024-01-11T13:57:05.319Z,11.80
2024-01-11T13:59:44.689Z,11.81
2024-01-11T14:02:29.104Z,11.81
2024-01-11T14:05:09.557Z,11.90
2024-01-11T14:07:50.201Z,11.93
2024-01-11T14:10:30.075Z,11.68
2024-01-11T14:13:11.853Z,11.54
2024-01-11T14:15:53.061Z,11.51
2024-01-11T14:18:37.587Z,11.51
2024-01-11T14:21:17.380Z,11.48
2024-01-11T14:23:56.693Z,11.65
2024-01-11T14:26:36.528Z,11.82
2024-01-11T14:29:15.903Z,11.81
2024-01-11T14:31:55.535Z,11.62
2024-01-11T14:34:41.252Z,11.42
2024-01-11T14:37:21.142Z,11.25
2024-01-11T14:40:00.552Z,10.92
2024-01-11T14:42:40.174Z,10.62
2024-01-11T14:45:19.594Z,10.65
2024-01-11T14:48:00.713Z,10.52
2024-01-11T14:50:45.606Z,10.35
2024-01-11T14:53:25.001Z,9.81
2024-01-11T14:56:04.833Z,9.39
2024-01-11T14:58:44.147Z,8.96
2024-01-11T15:01:23.471Z,8.73
2024-01-11T15:04:02.867Z,8.53
2024-01-11T15:06:47.413Z,7.08
2024-01-11T15:09:28.295Z,4.42
2024-01-11T15:12:07.672Z,3.59
2024-01-11T15:14:47.114Z,3.14
2024-01-11T15:17:26.615Z,2.96
2024-01-11T15:20:07.039Z,2.85
2024-01-11T15:22:51.445Z,2.69
2024-01-11T15:25:31.146Z,2.54
2024-01-11T15:28:10.493Z,2.44
2024-01-11T15:30:50.970Z,2.43
2024-01-11T15:33:30.397Z,2.45
2024-01-11T15:36:09.814Z,2.34
2024-01-11T15:38:58.406Z,2.22
2024-01-11T15:41:44.031Z,2.13
2024-01-11T15:44:24.406Z,2.06
2024-01-11T15:47:04.148Z,1.96
2024-01-11T15:49:43.407Z,1.91
2024-01-11T15:52:22.796Z,1.85
2024-01-11T15:55:07.713Z,1.81
2024-01-11T15:57:47.090Z,1.78
2024-01-11T16:00:26.602Z,1.77
2024-01-11T16:03:09.108Z,1.73
2024-01-11T16:05:48.533Z,1.62
2024-01-11T16:08:27.891Z,1.52
2024-01-11T16:11:12.334Z,1.41
2024-01-11T16:13:52.279Z,1.30
2024-01-11T16:16:31.630Z,1.24
2024-01-11T16:19:12.385Z,1.19
2024-01-11T16:21:51.846Z,1.12
2024-01-11T16:24:31.145Z,1.08
2024-01-11T16:27:16.007Z,1.05
2024-01-11T16:29:55.342Z,1.05
2024-01-11T16:32:35.140Z,1.03
2024-01-11T16:35:15.392Z,0.91
2024-01-11T16:37:54.763Z,0.82
2024-01-11T16:40:34.109Z,0.75
2024-01-11T16:43:18.507Z,0.69
2024-01-11T16:45:57.984Z,0.63
2024-01-11T16:48:37.319Z,0.60
2024-01-11T16:51:16.664Z,0.52
2024-01-11T16:53:55.952Z,0.39
2024-01-11T16:56:36.223Z,0.38
2024-01-11T16:59:20.674Z,0.31
2024-01-11T17:02:00.050Z,0.26
2024-01-11T17:04:39.353Z,0.18
2024-01-11T17:07:18.666Z,0.14
2024-01-11T17:09:58.012Z,0.12
2024-01-11T17:12:38.399Z,0.07
2024-01-11T17:15:24.528Z,-0.06
2024-01-11T17:18:04.089Z,-0.18
2024-01-11T17:20:43.618Z,-0.27
2024-01-11T17:23:23.010Z,-0.32
2024-01-11T17:26:05.788Z,-0.34
2024-01-11T17:28:45.447Z,-0.40
2024-01-11T17:31:29.797Z,-0.43
2024-01-11T17:34:09.230Z,-0.44
2024-01-11T17:36:48.554Z,-0.43
2024-01-11T17:39:28.146Z,-0.45
2024-01-11T17:42:07.500Z,-0.44
2024-01-11T17:44:46.845Z,-0.44
2024-01-11T17:47:31.360Z,-0.43
2024-01-11T17:50:11.289Z,-0.45
2024-01-11T17:52:51.945Z,-0.46
2024-01-11T17:55:31.747Z,-0.51
2024-01-11T17:58:11.445Z,-0.64
2024-01-11T18:00:50.886Z,-0.77
2024-01-11T18:03:35.273Z,-0.89
2024-01-11T18:06:17.624Z,-1.00
2024-01-11T18:08:57.069Z,-1.01
2024-01-11T18:11:36.493Z,-1.04
2024-01-11T18:14:15.927Z,-1.07
2024-01-11T18:16:55.311Z,-1.12
2024-01-11T18:19:39.835Z,-1.18
2024-01-11T18:22:19.373Z,-1.21
2024-01-11T18:24:58.724Z,-1.23
2024-01-11T18:27:38.870Z,-1.21
2024-01-11T18:30:19.781Z,-1.22
2024-01-11T18:32:59.297Z,-1.23
2024-01-11T18:35:43.803Z,-1.25
2024-01-11T18:38:24.936Z,-1.26
2024-01-11T18:41:04.282Z,-1.34
2024-01-11T18:43:43.636Z,-1.43
2024-01-11T18:46:23.353Z,-1.38
2024-01-11T18:49:05.417Z,-1.29
2024-01-11T18:51:52.310Z,-1.31
2024-01-11T18:54:31.597Z,-1.35
2024-01-11T18:57:12.668Z,-1.38
2024-01-11T18:59:52.171Z,-1.42
2024-01-11T19:02:31.605Z,-1.45
2024-01-11T19:05:12.651Z,-1.54
2024-01-11T19:07:58.536Z,-1.58
2024-01-11T19:10:37.911Z,-1.61
2024-01-11T19:13:18.036Z,-1.63
2024-01-11T19:15:57.366Z,-1.64
2024-01-11T19:18:37.113Z,-1.68
2024-01-11T19:21:16.615Z,-1.73
2024-01-11T19:24:01.125Z,-1.76
2024-01-11T19:26:40.608Z,-1.80
2024-01-11T19:29:20.029Z,-1.85
2024-01-11T19:31:59.327Z,-1.91
2024-01-11T19:34:39.924Z,-1.99
2024-01-11T19:37:21.173Z,-2.05
2024-01-11T19:40:07.227Z,-2.01
2024-01-11T19:42:46.561Z,-2.05
2024-01-11T19:45:25.898Z,-2.10
2024-01-11T19:48:05.352Z,-2.10
2024-01-11T19:50:45.050Z,-2.10
2024-01-11T19:53:24.424Z,-2.07
2024-01-11T19:56:08.836Z,-2.02
2024-01-11T19:58:48.164Z,-2.04
2024-01-11T20:01:27.519Z,-2.06
2024-01-11T20:04:07.056Z,-2.08
2024-01-11T20:06:48.081Z,-2.09
2024-01-11T20:09:27.380Z,-2.10
2024-01-11T20:12:12.326Z,-2.09
2024-01-11T20:14:51.774Z,-2.06
2024-01-11T20:17:31.156Z,-2.10
2024-01-11T20:20:10.908Z,-2.17
2024-01-11T20:22:50.290Z,-2.22
2024-01-11T20:25:29.556Z,-2.22
2024-01-11T20:28:14.433Z,-2.26
2024-01-11T20:30:53.856Z,-2.32
2024-01-11T20:33:33.389Z,-2.44
2024-01-11T20:36:13.914Z,-2.45
2024-01-11T20:38:53.239Z,-2.47
2024-01-11T20:41:32.693Z,-2.47
2024-01-11T20:44:17.822Z,-2.48
2024-01-11T20:46:59.774Z,-2.48
2024-01-11T20:49:40.332Z,-2.47
2024-01-11T20:52:19.666Z,-2.50
2024-01-11T20:54:58.984Z,-2.56
2024-01-11T20:57:39.321Z,-2.61
2024-01-11T21:00:26.268Z,-2.63
2024-01-11T21:03:05.674Z,-2.74
2024-01-11T21:05:47.065Z,-2.80
2024-01-11T21:08:27.142Z,-2.85
2024-01-11T21:11:06.489Z,-2.85
2024-01-11T21:13:45.791Z,-2.89
2024-01-11T21:16:30.305Z,-2.92
2024-01-11T21:19:10.463Z,-3.05
2024-01-11T21:21:52.781Z,-3.21
2024-01-11T21:24:32.146Z,-3.30
2024-01-11T21:27:11.805Z,-3.34
2024-01-11T21:29:51.263Z,-3.41
2024-01-11T21:32:35.816Z,-3.48
2024-01-11T21:35:20.138Z,-3.47
2024-01-11T21:37:59.918Z,-3.49
2024-01-11T21:40:41.688Z,-3.51
2024-01-11T21:43:20.983Z,-3.44
2024-01-11T21:46:00.279Z,-3.43
2024-01-11T21:48:44.965Z,-3.47
2024-01-11T21:51:25.369Z,-3.44
2024-01-11T21:54:04.735Z,-3.53
2024-01-11T21:56:44.167Z,-3.60
2024-01-11T21:59:23.527Z,-3.61
2024-01-11T22:02:02.845Z,-3.66
2024-01-11T22:04:47.591Z,-3.71
2024-01-11T22:07:27.021Z,-3.74
2024-01-11T22:10:06.292Z,-3.75
2024-01-11T22:12:45.664Z,-3.80
2024-01-11T22:15:25.179Z,-3.88
2024-01-11T22:18:04.719Z,-3.91
2024-01-11T22:20:49.420Z,-3.94
2024-01-11T22:23:28.896Z,-4.00
2024-01-11T22:26:08.712Z,-4.00
2024-01-11T22:28:48.093Z,-4.02
2024-01-11T22:31:28.197Z,-4.08
2024-01-11T22:34:07.662Z,-4.13
2024-01-11T22:36:54.160Z,-4.12
2024-01-11T22:39:33.572Z,-4.11
2024-01-11T22:42:13.005Z,-4.06
2024-01-11T22:44:52.447Z,-4.02
2024-01-11T22:47:32.392Z,-4.01
2024-01-11T22:50:12.730Z,-4.01
2024-01-11T22:52:57.323Z,-4.04
2024-01-11T22:55:36.619Z,-4.09
2024-01-11T22:58:16.114Z,-4.19
2024-01-11T23:00:57.540Z,-4.22
2024-01-11T23:03:36.854Z,-4.25
2024-01-11T23:06:16.456Z,-4.27
2024-01-11T23:09:01.140Z,-4.28
2024-01-11T23:11:40.503Z,-4.26
2024-01-11T23:14:20.704Z,-4.29
2024-01-11T23:17:00.156Z,-4.32
2024-01-11T23:19:39.533Z,-4.37
2024-01-11T23:22:18.935Z,-4.39
2024-01-11T23:25:03.324Z,-4.40
2024-01-11T23:27:42.686Z,-4.40
2024-01-11T23:30:22.869Z,-4.44
2024-01-11T23:33:02.329Z,-4.43
2024-01-11T23:35:41.762Z,-4.44
2024-01-11T23:38:21.120Z,-4.46
2024-01-11T23:41:05.676Z,-4.49
2024-01-11T23:43:45.008Z,-4.46
2024-01-11T23:46:24.331Z,-4.45
2024-01-11T23:49:03.831Z,-4.39
2024-01-11T23:51:43.383Z,-4.35
2024-01-11T23:54:22.806Z,-4.33
2024-01-11T23:57:07.182Z,-4.30
2024-01-11T23:59:49.509Z,-4.16
